aviador You're here:

KLOR Decoded Metar

LOWE AHP/FT. RUC in AL, USA
Report Time2017-07-26 05:58:00
UTC Time2017-07-26 06:39:04
Flight Rules vfr VFR
WindCalm
Visibility9999 m
Phenomena:N/A
Clouds:N/A
CeilingNone
Temp22°C (ISA +7)
Dew Point22°C (100% RH)
QNH1019 hPa
Density Alt1,260 ft
Elevation243 ft
Report Wrong Elevation
Raw Report
METAR KLOR 260558Z AUTO 00000KT 10SM CLR 22/22 A3009 RMK AO2 SLPNO
T02240221 10254 20223 402920220=

Extra information for KLOR:More info

Metar Taf Metar & Taf Last 4 Metars F.Rules Stats Wind Profile Meteogram Temp Stats Airport Information Weather charts Add Link Nearby VenuesMetar ALERT Operation Metar Decoded Social comments

AIRNAV info for KLOR